sensor_id;sensor_type;location;lat;lon;timestamp;pressure;altitude;pressure_sealevel;temperature;humidity
79671;BME280;69137;50.878;8.050;2024-01-06T00:01:20;96945.97;;;3.88;98.87
79671;BME280;69137;50.878;8.050;2024-01-06T00:03:46;96945.41;;;3.86;98.47
79671;BME280;69137;50.878;8.050;2024-01-06T00:06:12;96946.53;;;3.90;99.04
79671;BME280;69137;50.878;8.050;2024-01-06T00:08:37;96952.19;;;3.89;99.15
79671;BME280;69137;50.878;8.050;2024-01-06T00:11:03;96952.66;;;3.81;99.29
79671;BME280;69137;50.878;8.050;2024-01-06T00:13:28;96948.09;;;3.86;98.88
79671;BME280;69137;50.878;8.050;2024-01-06T00:15:54;96952.66;;;3.81;99.68
79671;BME280;69137;50.878;8.050;2024-01-06T00:18:19;96954.59;;;3.85;99.77
79671;BME280;69137;50.878;8.050;2024-01-06T00:20:44;96950.00;;;3.86;99.47
79671;BME280;69137;50.878;8.050;2024-01-06T00:23:10;96953.50;;;3.86;99.11
79671;BME280;69137;50.878;8.050;2024-01-06T00:25:35;96958.91;;;3.86;100.00
79671;BME280;69137;50.878;8.050;2024-01-06T00:28:00;96959.44;;;3.83;99.83
79671;BME280;69137;50.878;8.050;2024-01-06T00:30:26;96956.72;;;3.83;99.99
79671;BME280;69137;50.878;8.050;2024-01-06T00:32:51;96955.91;;;3.83;100.00
79671;BME280;69137;50.878;8.050;2024-01-06T00:35:16;96964.22;;;3.76;100.00
79671;BME280;69137;50.878;8.050;2024-01-06T00:37:41;96957.44;;;3.68;100.00
79671;BME280;69137;50.878;8.050;2024-01-06T00:40:07;96963.84;;;3.62;100.00
79671;BME280;69137;50.878;8.050;2024-01-06T00:42:32;96967.44;;;3.73;100.00
79671;BME280;69137;50.878;8.050;2024-01-06T00:44:57;96965.03;;;3.71;100.00
79671;BME280;69137;50.878;8.050;2024-01-06T00:47:23;96970.94;;;3.68;100.00
79671;BME280;69137;50.878;8.050;2024-01-06T00:49:49;96966.03;;;3.65;100.00
79671;BME280;69137;50.878;8.050;2024-01-06T00:52:14;96958.53;;;3.72;100.00
79671;BME280;69137;50.878;8.050;2024-01-06T00:54:40;96956.97;;;3.77;100.00
79671;BME280;69137;50.878;8.050;2024-01-06T00:57:05;96954.16;;;3.66;100.00
79671;BME280;69137;50.878;8.050;2024-01-06T00:59:30;96952.84;;;3.69;100.00
79671;BME280;69137;50.878;8.050;2024-01-06T01:01:56;96947.41;;;3.64;100.00
79671;BME280;69137;50.878;8.050;2024-01-06T01:04:21;96948.50;;;3.68;100.00
79671;BME280;69137;50.878;8.050;2024-01-06T01:06:46;96952.28;;;3.67;100.00
79671;BME280;69137;50.878;8.050;2024-01-06T01:09:11;96947.16;;;3.70;100.00
79671;BME280;69137;50.878;8.050;2024-01-06T01:11:38;96956.09;;;3.71;100.00
79671;BME280;69137;50.878;8.050;2024-01-06T01:14:04;96965.31;;;3.75;100.00
79671;BME280;69137;50.878;8.050;2024-01-06T01:16:29;96961.59;;;3.86;99.64
79671;BME280;69137;50.878;8.050;2024-01-06T01:18:54;96962.94;;;3.84;99.60
79671;BME280;69137;50.878;8.050;2024-01-06T01:21:20;96962.66;;;3.80;99.85
79671;BME280;69137;50.878;8.050;2024-01-06T01:23:45;96970.72;;;3.75;100.00
79671;BME280;69137;50.878;8.050;2024-01-06T01:26:10;96966.41;;;3.74;100.00
79671;BME280;69137;50.878;8.050;2024-01-06T01:28:36;96980.47;;;3.81;100.00
79671;BME280;69137;50.878;8.050;2024-01-06T01:31:01;96978.34;;;3.83;100.00
79671;BME280;69137;50.878;8.050;2024-01-06T01:33:26;96974.03;;;3.82;100.00
79671;BME280;69137;50.878;8.050;2024-01-06T01:35:52;96975.41;;;3.85;99.93
79671;BME280;69137;50.878;8.050;2024-01-06T01:38:17;96974.13;;;3.92;99.45
79671;BME280;69137;50.878;8.050;2024-01-06T01:40:42;96969.94;;;3.80;98.92
79671;BME280;69137;50.878;8.050;2024-01-06T01:43:18;96969.75;;;3.91;99.05
79671;BME280;69137;50.878;8.050;2024-01-06T01:45:45;96971.13;;;3.94;98.79
79671;BME280;69137;50.878;8.050;2024-01-06T01:48:12;96983.63;;;4.00;98.57
79671;BME280;69137;50.878;8.050;2024-01-06T01:50:37;96987.94;;;4.01;98.52
79671;BME280;69137;50.878;8.050;2024-01-06T01:53:03;96993.53;;;3.89;99.18
79671;BME280;69137;50.878;8.050;2024-01-06T01:55:28;96986.19;;;3.85;99.36
79671;BME280;69137;50.878;8.050;2024-01-06T01:57:53;96982.19;;;3.87;99.59
79671;BME280;69137;50.878;8.050;2024-01-06T02:00:19;96998.44;;;3.92;99.17
79671;BME280;69137;50.878;8.050;2024-01-06T02:02:44;97003.78;;;3.87;99.42
79671;BME280;69137;50.878;8.050;2024-01-06T02:05:09;97005.22;;;3.95;99.46
79671;BME280;69137;50.878;8.050;2024-01-06T02:07:35;97000.66;;;4.01;98.59
79671;BME280;69137;50.878;8.050;2024-01-06T02:10:00;97010.94;;;4.04;98.44
79671;BME280;69137;50.878;8.050;2024-01-06T02:12:25;97002.69;;;4.15;98.15
79671;BME280;69137;50.878;8.050;2024-01-06T02:14:51;97004.53;;;4.10;98.62
79671;BME280;69137;50.878;8.050;2024-01-06T02:17:16;96999.94;;;4.10;97.88
79671;BME280;69137;50.878;8.050;2024-01-06T02:19:41;97000.47;;;4.07;97.98
79671;BME280;69137;50.878;8.050;2024-01-06T02:22:07;96992.03;;;4.04;98.14
79671;BME280;69137;50.878;8.050;2024-01-06T02:24:32;97003.69;;;4.09;97.90
79671;BME280;69137;50.878;8.050;2024-01-06T02:26:57;97007.47;;;4.08;98.03
79671;BME280;69137;50.878;8.050;2024-01-06T02:29:22;97008.03;;;4.10;98.12
79671;BME280;69137;50.878;8.050;2024-01-06T02:31:48;97008.81;;;4.06;98.37
79671;BME280;69137;50.878;8.050;2024-01-06T02:34:13;97003.44;;;4.11;98.35
79671;BME280;69137;50.878;8.050;2024-01-06T02:36:38;97012.63;;;4.10;98.11
79671;BME280;69137;50.878;8.050;2024-01-06T02:39:04;97006.97;;;4.11;98.37
79671;BME280;69137;50.878;8.050;2024-01-06T02:41:29;97014.28;;;4.16;98.52
79671;BME280;69137;50.878;8.050;2024-01-06T02:43:55;97015.91;;;4.17;98.36
79671;BME280;69137;50.878;8.050;2024-01-06T02:46:21;97015.16;;;4.22;98.79
79671;BME280;69137;50.878;8.050;2024-01-06T02:48:46;97026.22;;;4.20;98.51
79671;BME280;69137;50.878;8.050;2024-01-06T02:51:12;97020.03;;;4.25;98.80
79671;BME280;69137;50.878;8.050;2024-01-06T02:53:38;97027.81;;;4.16;99.36
79671;BME280;69137;50.878;8.050;2024-01-06T02:56:03;97029.19;;;4.19;99.29
79671;BME280;69137;50.878;8.050;2024-01-06T02:58:28;97021.38;;;4.22;99.31
79671;BME280;69137;50.878;8.050;2024-01-06T03:00:54;97030.81;;;4.20;99.48
79671;BME280;69137;50.878;8.050;2024-01-06T03:03:19;97034.88;;;4.22;99.38
79671;BME280;69137;50.878;8.050;2024-01-06T03:05:44;97032.19;;;4.22;99.48
79671;BME280;69137;50.878;8.050;2024-01-06T03:08:12;97040.56;;;4.21;99.66
79671;BME280;69137;50.878;8.050;2024-01-06T03:10:37;97042.94;;;4.17;100.00
79671;BME280;69137;50.878;8.050;2024-01-06T03:13:03;97045.13;;;4.20;100.00
79671;BME280;69137;50.878;8.050;2024-01-06T03:15:28;97045.44;;;4.24;99.92
79671;BME280;69137;50.878;8.050;2024-01-06T03:17:53;97053.56;;;4.24;99.58
79671;BME280;69137;50.878;8.050;2024-01-06T03:20:19;97046.31;;;4.29;99.12
79671;BME280;69137;50.878;8.050;2024-01-06T03:22:44;97040.91;;;4.29;98.76
79671;BME280;69137;50.878;8.050;2024-01-06T03:25:09;97049.53;;;4.26;98.19
79671;BME280;69137;50.878;8.050;2024-01-06T03:27:35;97057.13;;;4.29;98.34
79671;BME280;69137;50.878;8.050;2024-01-06T03:30:00;97060.34;;;4.26;98.35
79671;BME280;69137;50.878;8.050;2024-01-06T03:32:25;97060.63;;;4.30;98.49
79671;BME280;69137;50.878;8.050;2024-01-06T03:34:50;97062.31;;;4.36;98.47
79671;BME280;69137;50.878;8.050;2024-01-06T03:37:16;97067.72;;;4.36;98.67
79671;BME280;69137;50.878;8.050;2024-01-06T03:39:41;97068.63;;;4.47;98.83
79671;BME280;69137;50.878;8.050;2024-01-06T03:42:06;97065.13;;;4.51;98.30
79671;BME280;69137;50.878;8.050;2024-01-06T03:44:32;97071.59;;;4.50;97.84
79671;BME280;69137;50.878;8.050;2024-01-06T03:46:59;97073.75;;;4.48;97.60
79671;BME280;69137;50.878;8.050;2024-01-06T03:49:24;97070.75;;;4.45;97.10
79671;BME280;69137;50.878;8.050;2024-01-06T03:51:50;97065.88;;;4.42;97.16
79671;BME280;69137;50.878;8.050;2024-01-06T03:54:15;97069.63;;;4.41;97.81
79671;BME280;69137;50.878;8.050;2024-01-06T03:56:40;97076.38;;;4.38;97.70
79671;BME280;69137;50.878;8.050;2024-01-06T03:59:06;97077.22;;;4.38;98.19
79671;BME280;69137;50.878;8.050;2024-01-06T04:01:31;97081.50;;;4.34;97.95
79671;BME280;69137;50.878;8.050;2024-01-06T04:03:59;97091.19;;;4.30;98.47
79671;BME280;69137;50.878;8.050;2024-01-06T04:06:25;97087.41;;;4.31;98.79
79671;BME280;69137;50.878;8.050;2024-01-06T04:08:51;97088.47;;;4.30;98.88
79671;BME280;69137;50.878;8.050;2024-01-06T04:11:18;97086.84;;;4.29;99.01
79671;BME280;69137;50.878;8.050;2024-01-06T04:13:43;97085.56;;;4.37;98.91
79671;BME280;69137;50.878;8.050;2024-01-06T04:16:08;97091.69;;;4.27;99.14
79671;BME280;69137;50.878;8.050;2024-01-06T04:18:34;97089.84;;;4.33;98.51
79671;BME280;69137;50.878;8.050;2024-01-06T04:20:59;97092.25;;;4.29;98.72
79671;BME280;69137;50.878;8.050;2024-01-06T04:23:24;97087.47;;;4.09;99.37
79671;BME280;69137;50.878;8.050;2024-01-06T04:25:51;97087.47;;;4.09;99.34
79671;BME280;69137;50.878;8.050;2024-01-06T04:28:16;97093.75;;;4.15;99.64
79671;BME280;69137;50.878;8.050;2024-01-06T04:30:41;97097.56;;;4.19;99.88
79671;BME280;69137;50.878;8.050;2024-01-06T04:33:07;97092.16;;;4.19;99.64
79671;BME280;69137;50.878;8.050;2024-01-06T04:35:32;97090.09;;;4.26;99.74
79671;BME280;69137;50.878;8.050;2024-01-06T04:37:57;97087.66;;;4.30;98.99
79671;BME280;69137;50.878;8.050;2024-01-06T04:40:23;97098.25;;;4.31;98.74
79671;BME280;69137;50.878;8.050;2024-01-06T04:42:48;97101.19;;;4.30;98.81
79671;BME280;69137;50.878;8.050;2024-01-06T04:45:13;97086.00;;;4.24;99.03
79671;BME280;69137;50.878;8.050;2024-01-06T04:47:39;97095.50;;;4.26;99.10
79671;BME280;69137;50.878;8.050;2024-01-06T04:50:04;97100.34;;;4.24;99.28
79671;BME280;69137;50.878;8.050;2024-01-06T04:52:30;97097.06;;;4.22;99.77
79671;BME280;69137;50.878;8.050;2024-01-06T04:54:55;97091.69;;;4.27;99.65
79671;BME280;69137;50.878;8.050;2024-01-06T04:57:20;97087.94;;;4.28;99.04
79671;BME280;69137;50.878;8.050;2024-01-06T04:59:46;97097.09;;;4.27;99.32
79671;BME280;69137;50.878;8.050;2024-01-06T05:02:11;97097.09;;;4.27;99.44
79671;BME280;69137;50.878;8.050;2024-01-06T05:04:36;97098.81;;;4.33;99.03
79671;BME280;69137;50.878;8.050;2024-01-06T05:07:02;97102.03;;;4.35;98.66
79671;BME280;69137;50.878;8.050;2024-01-06T05:09:28;97106.91;;;4.33;98.90
79671;BME280;69137;50.878;8.050;2024-01-06T05:11:53;97108.28;;;4.36;99.36
79671;BME280;69137;50.878;8.050;2024-01-06T05:14:18;97111.00;;;4.36;99.64
79671;BME280;69137;50.878;8.050;2024-01-06T05:16:44;97100.41;;;4.34;99.64
79671;BME280;69137;50.878;8.050;2024-01-06T05:19:09;97106.91;;;4.33;100.00
79671;BME280;69137;50.878;8.050;2024-01-06T05:21:34;97110.44;;;4.34;100.00
79671;BME280;69137;50.878;8.050;2024-01-06T05:24:00;97105.88;;;4.40;100.00
79671;BME280;69137;50.878;8.050;2024-01-06T05:26:25;97112.91;;;4.41;99.66
79671;BME280;69137;50.878;8.050;2024-01-06T05:28:51;97107.00;;;4.44;99.59
79671;BME280;69137;50.878;8.050;2024-01-06T05:31:17;97101.59;;;4.44;99.42
79671;BME280;69137;50.878;8.050;2024-01-06T05:33:42;97102.97;;;4.46;99.52
79671;BME280;69137;50.878;8.050;2024-01-06T05:36:07;97103.50;;;4.48;98.97
79671;BME280;69137;50.878;8.050;2024-01-06T05:38:33;97107.53;;;4.46;98.94
79671;BME280;69137;50.878;8.050;2024-01-06T05:40:58;97112.38;;;4.38;99.54
79671;BME280;69137;50.878;8.050;2024-01-06T05:43:23;97106.44;;;4.42;99.94
79671;BME280;69137;50.878;8.050;2024-01-06T05:45:49;97114.97;;;4.28;100.00
79671;BME280;69137;50.878;8.050;2024-01-06T05:48:14;97119.34;;;4.34;100.00
79671;BME280;69137;50.878;8.050;2024-01-06T05:50:41;97116.94;;;4.38;100.00
79671;BME280;69137;50.878;8.050;2024-01-06T05:53:06;97116.13;;;4.37;100.00
79671;BME280;69137;50.878;8.050;2024-01-06T05:55:32;97122.91;;;4.40;100.00
79671;BME280;69137;50.878;8.050;2024-01-06T05:57:57;97121.28;;;4.39;100.00
79671;BME280;69137;50.878;8.050;2024-01-06T06:00:22;97125.09;;;4.43;100.00
79671;BME280;69137;50.878;8.050;2024-01-06T06:02:48;97127.31;;;4.46;100.00
79671;BME280;69137;50.878;8.050;2024-01-06T06:05:13;97122.44;;;4.48;100.00
79671;BME280;69137;50.878;8.050;2024-01-06T06:07:39;97131.38;;;4.49;99.76
79671;BME280;69137;50.878;8.050;2024-01-06T06:10:10;97134.63;;;4.51;99.55
79671;BME280;69137;50.878;8.050;2024-01-06T06:12:36;97130.88;;;4.52;99.18
79671;BME280;69137;50.878;8.050;2024-01-06T06:15:03;97141.88;;;4.45;98.84
79671;BME280;69137;50.878;8.050;2024-01-06T06:17:29;97138.13;;;4.46;99.04
79671;BME280;69137;50.878;8.050;2024-01-06T06:19:55;97140.56;;;4.48;98.88
79671;BME280;69137;50.878;8.050;2024-01-06T06:22:22;97151.13;;;4.49;99.19
79671;BME280;69137;50.878;8.050;2024-01-06T06:24:47;97155.47;;;4.50;99.02
79671;BME280;69137;50.878;8.050;2024-01-06T06:27:12;97157.06;;;4.51;98.99
79671;BME280;69137;50.878;8.050;2024-01-06T06:29:38;97163.56;;;4.50;99.18
79671;BME280;69137;50.878;8.050;2024-01-06T06:32:03;97163.84;;;4.49;99.47
79671;BME280;69137;50.878;8.050;2024-01-06T06:34:28;97158.44;;;4.49;99.29
79671;BME280;69137;50.878;8.050;2024-01-06T06:36:53;97163.56;;;4.50;99.73
79671;BME280;69137;50.878;8.050;2024-01-06T06:39:19;97166.28;;;4.50;99.23
79671;BME280;69137;50.878;8.050;2024-01-06T06:41:44;97161.69;;;4.51;99.46
79671;BME280;69137;50.878;8.050;2024-01-06T06:44:09;97176.84;;;4.52;99.33
79671;BME280;69137;50.878;8.050;2024-01-06T06:46:36;97179.56;;;4.52;98.81
79671;BME280;69137;50.878;8.050;2024-01-06T06:49:01;97178.19;;;4.49;99.21
79671;BME280;69137;50.878;8.050;2024-01-06T06:51:27;97184.13;;;4.51;99.12
79671;BME280;69137;50.878;8.050;2024-01-06T06:53:52;97182.25;;;4.52;98.91
79671;BME280;69137;50.878;8.050;2024-01-06T06:56:18;97184.97;;;4.52;99.15
79671;BME280;69137;50.878;8.050;2024-01-06T06:58:43;97187.97;;;4.55;98.26
79671;BME280;69137;50.878;8.050;2024-01-06T07:01:08;97201.47;;;4.55;98.39
79671;BME280;69137;50.878;8.050;2024-01-06T07:03:34;97202.56;;;4.54;98.99
79671;BME280;69137;50.878;8.050;2024-01-06T07:05:59;97209.91;;;4.59;99.07
79671;BME280;69137;50.878;8.050;2024-01-06T07:08:24;97214.19;;;4.55;99.53
79671;BME280;69137;50.878;8.050;2024-01-06T07:10:50;97213.63;;;4.53;99.73
79671;BME280;69137;50.878;8.050;2024-01-06T07:13:15;97209.31;;;4.52;99.45
79671;BME280;69137;50.878;8.050;2024-01-06T07:15:40;97216.81;;;4.45;99.25
79671;BME280;69137;50.878;8.050;2024-01-06T07:18:06;97218.66;;;4.39;99.25
79671;BME280;69137;50.878;8.050;2024-01-06T07:20:32;97218.94;;;4.43;99.51
79671;BME280;69137;50.878;8.050;2024-01-06T07:22:57;97232.72;;;4.41;99.38
79671;BME280;69137;50.878;8.050;2024-01-06T07:25:22;97225.44;;;4.42;98.90
79671;BME280;69137;50.878;8.050;2024-01-06T07:27:47;97224.06;;;4.39;98.90
79671;BME280;69137;50.878;8.050;2024-01-06T07:30:13;97235.69;;;4.40;99.11
79671;BME280;69137;50.878;8.050;2024-01-06T07:32:39;97237.13;;;4.47;99.55
79671;BME280;69137;50.878;8.050;2024-01-06T07:35:04;97239.56;;;4.49;99.81
79671;BME280;69137;50.878;8.050;2024-01-06T07:37:30;97240.63;;;4.48;99.80
79671;BME280;69137;50.878;8.050;2024-01-06T07:39:55;97254.78;;;4.55;99.39
79671;BME280;69137;50.878;8.050;2024-01-06T07:42:20;97248.78;;;4.53;99.29
79671;BME280;69137;50.878;8.050;2024-01-06T07:44:45;97257.16;;;4.51;99.35
79671;BME280;69137;50.878;8.050;2024-01-06T07:47:11;97265.59;;;4.55;99.66
79671;BME280;69137;50.878;8.050;2024-01-06T07:49:36;97262.88;;;4.55;99.48
79671;BME280;69137;50.878;8.050;2024-01-06T07:52:02;97265.78;;;4.48;100.00
79671;BME280;69137;50.878;8.050;2024-01-06T07:54:27;97261.22;;;4.49;99.76
79671;BME280;69137;50.878;8.050;2024-01-06T07:56:52;97267.38;;;4.44;99.14
79671;BME280;69137;50.878;8.050;2024-01-06T07:59:18;97274.69;;;4.44;99.54
79671;BME280;69137;50.878;8.050;2024-01-06T08:01:45;97273.84;;;4.43;99.84
79671;BME280;69137;50.878;8.050;2024-01-06T08:04:11;97285.97;;;4.41;99.65
79671;BME280;69137;50.878;8.050;2024-01-06T08:06:36;97276.00;;;4.41;100.00
79671;BME280;69137;50.878;8.050;2024-01-06T08:09:02;97284.13;;;4.41;100.00
79671;BME280;69137;50.878;8.050;2024-01-06T08:11:28;97283.72;;;4.32;100.00
79671;BME280;69137;50.878;8.050;2024-01-06T08:13:53;97300.28;;;4.36;100.00
79671;BME280;69137;50.878;8.050;2024-01-06T08:16:19;97291.72;;;4.44;100.00
79671;BME280;69137;50.878;8.050;2024-01-06T08:18:44;97293.34;;;4.45;100.00
79671;BME280;69137;50.878;8.050;2024-01-06T08:21:10;97293.03;;;4.42;100.00
79671;BME280;69137;50.878;8.050;2024-01-06T08:23:36;97304.97;;;4.46;100.00
79671;BME280;69137;50.878;8.050;2024-01-06T08:26:01;97306.63;;;4.47;100.00
79671;BME280;69137;50.878;8.050;2024-01-06T08:28:26;97308.56;;;4.51;100.00
79671;BME280;69137;50.878;8.050;2024-01-06T08:30:52;97300.41;;;4.46;100.00
79671;BME280;69137;50.878;8.050;2024-01-06T08:33:17;97309.38;;;4.52;100.00
79671;BME280;69137;50.878;8.050;2024-01-06T08:35:43;97312.41;;;4.55;100.00
79671;BME280;69137;50.878;8.050;2024-01-06T08:38:08;97311.31;;;4.56;100.00
79671;BME280;69137;50.878;8.050;2024-01-06T08:40:34;97314.91;;;4.62;100.00
79671;BME280;69137;50.878;8.050;2024-01-06T08:43:00;97320.91;;;4.69;100.00
79671;BME280;69137;50.878;8.050;2024-01-06T08:45:25;97326.59;;;4.68;100.00
79671;BME280;69137;50.878;8.050;2024-01-06T08:47:59;97332.81;;;4.68;100.00
79671;BME280;69137;50.878;8.050;2024-01-06T08:50:25;97329.38;;;4.73;100.00
79671;BME280;69137;50.878;8.050;2024-01-06T08:52:50;97337.72;;;4.71;100.00
79671;BME280;69137;50.878;8.050;2024-01-06T08:55:17;97341.00;;;4.73;100.00
79671;BME280;69137;50.878;8.050;2024-01-06T08:57:43;97348.88;;;4.75;100.00
79671;BME280;69137;50.878;8.050;2024-01-06T09:00:08;97340.50;;;4.76;100.00
79671;BME280;69137;50.878;8.050;2024-01-06T09:02:35;97348.66;;;4.81;100.00
79671;BME280;69137;50.878;8.050;2024-01-06T09:05:00;97354.66;;;4.84;100.00
79671;BME280;69137;50.878;8.050;2024-01-06T09:07:26;97357.34;;;4.84;100.00
79671;BME280;69137;50.878;8.050;2024-01-06T09:09:51;97357.88;;;4.80;100.00
79671;BME280;69137;50.878;8.050;2024-01-06T09:12:16;97367.03;;;4.79;99.63
79671;BME280;69137;50.878;8.050;2024-01-06T09:14:42;97367.56;;;4.76;99.86
79671;BME280;69137;50.878;8.050;2024-01-06T09:17:07;97369.97;;;4.73;100.00
79671;BME280;69137;50.878;8.050;2024-01-06T09:19:32;97368.13;;;4.78;99.99
79671;BME280;69137;50.878;8.050;2024-01-06T09:21:58;97369.19;;;4.77;100.00
79671;BME280;69137;50.878;8.050;2024-01-06T09:24:23;97376.75;;;4.75;100.00
79671;BME280;69137;50.878;8.050;2024-01-06T09:26:48;97382.16;;;4.75;100.00
79671;BME280;69137;50.878;8.050;2024-01-06T09:29:15;97381.06;;;4.76;100.00
79671;BME280;69137;50.878;8.050;2024-01-06T09:31:41;97384.00;;;4.70;100.00
79671;BME280;69137;50.878;8.050;2024-01-06T09:34:09;97392.34;;;4.68;100.00
79671;BME280;69137;50.878;8.050;2024-01-06T09:36:34;97385.03;;;4.69;100.00
79671;BME280;69137;50.878;8.050;2024-01-06T09:38:59;97392.66;;;4.72;100.00
79671;BME280;69137;50.878;8.050;2024-01-06T09:41:24;97386.94;;;4.68;100.00
79671;BME280;69137;50.878;8.050;2024-01-06T09:43:50;97407.25;;;4.71;100.00
79671;BME280;69137;50.878;8.050;2024-01-06T09:46:23;97406.44;;;4.70;100.00
79671;BME280;69137;50.878;8.050;2024-01-06T09:48:50;97415.16;;;4.72;100.00
79671;BME280;69137;50.878;8.050;2024-01-06T09:51:18;97402.44;;;4.73;100.00
79671;BME280;69137;50.878;8.050;2024-01-06T09:53:57;97409.91;;;4.66;100.00
79671;BME280;69137;50.878;8.050;2024-01-06T09:56:24;97417.16;;;4.60;100.00
79671;BME280;69137;50.878;8.050;2024-01-06T09:58:54;97409.41;;;4.47;100.00
79671;BME280;69137;50.878;8.050;2024-01-06T10:01:19;97417.75;;;4.45;100.00
79671;BME280;69137;50.878;8.050;2024-01-06T10:03:45;97424.25;;;4.44;100.00
79671;BME280;69137;50.878;8.050;2024-01-06T10:06:11;97424.56;;;4.48;99.77
79671;BME280;69137;50.878;8.050;2024-01-06T10:08:36;97421.78;;;4.43;99.93
79671;BME280;69137;50.878;8.050;2024-01-06T10:11:02;97421.78;;;4.43;100.00
79671;BME280;69137;50.878;8.050;2024-01-06T10:13:28;97430.72;;;4.43;100.00
79671;BME280;69137;50.878;8.050;2024-01-06T10:15:54;97422.13;;;4.46;98.98
79671;BME280;69137;50.878;8.050;2024-01-06T10:18:20;97421.84;;;4.48;99.28
79671;BME280;69137;50.878;8.050;2024-01-06T10:20:46;97432.16;;;4.51;99.31
79671;BME280;69137;50.878;8.050;2024-01-06T10:23:11;97429.16;;;4.47;99.62
79671;BME280;69137;50.878;8.050;2024-01-06T10:25:37;97429.31;;;4.41;98.67
79671;BME280;69137;50.878;8.050;2024-01-06T10:28:02;97440.13;;;4.41;99.58
79671;BME280;69137;50.878;8.050;2024-01-06T10:30:28;97438.28;;;4.41;99.55
79671;BME280;69137;50.878;8.050;2024-01-06T10:32:54;97438.00;;;4.43;98.90
79671;BME280;69137;50.878;8.050;2024-01-06T10:35:19;97437.13;;;4.59;97.40
79671;BME280;69137;50.878;8.050;2024-01-06T10:37:45;97437.66;;;4.56;97.67
79671;BME280;69137;50.878;8.050;2024-01-06T10:40:15;97433.81;;;4.52;97.18
79671;BME280;69137;50.878;8.050;2024-01-06T10:42:44;97437.50;;;4.46;98.19
79671;BME280;69137;50.878;8.050;2024-01-06T10:45:11;97446.50;;;4.51;96.69
79671;BME280;69137;50.878;8.050;2024-01-06T10:47:37;97445.69;;;4.51;97.32
79671;BME280;69137;50.878;8.050;2024-01-06T10:50:03;97447.50;;;4.45;97.41
79671;BME280;69137;50.878;8.050;2024-01-06T10:52:30;97453.13;;;4.38;96.60
79671;BME280;69137;50.878;8.050;2024-01-06T10:54:55;97448.69;;;4.32;97.95
79671;BME280;69137;50.878;8.050;2024-01-06T10:57:21;97451.66;;;4.31;98.55
79671;BME280;69137;50.878;8.050;2024-01-06T10:59:50;97452.56;;;4.20;98.02
79671;BME280;69137;50.878;8.050;2024-01-06T11:02:16;97449.63;;;4.21;98.24
79671;BME280;69137;50.878;8.050;2024-01-06T11:04:44;97450.34;;;4.16;97.97
79671;BME280;69137;50.878;8.050;2024-01-06T11:07:10;97442.63;;;4.25;97.22
79671;BME280;69137;50.878;8.050;2024-01-06T11:09:37;97462.16;;;4.10;97.21
79671;BME280;69137;50.878;8.050;2024-01-06T11:12:05;97462.72;;;4.12;97.23
79671;BME280;69137;50.878;8.050;2024-01-06T11:14:37;97464.78;;;4.05;95.51
79671;BME280;69137;50.878;8.050;2024-01-06T11:17:02;97472.16;;;3.93;95.07
79671;BME280;69137;50.878;8.050;2024-01-06T11:24:48;97482.31;;;3.86;94.71
79671;BME280;69137;50.878;8.050;2024-01-06T11:27:25;97477.00;;;3.74;95.61
79671;BME280;69137;50.878;8.050;2024-01-06T11:29:58;97472.13;;;3.76;96.73
79671;BME280;69137;50.878;8.050;2024-01-06T11:32:28;97465.69;;;3.77;96.79
79671;BME280;69137;50.878;8.050;2024-01-06T11:34:55;97470.81;;;3.79;95.84
79671;BME280;69137;50.878;8.050;2024-01-06T11:37:34;97471.22;;;3.70;96.99
79671;BME280;69137;50.878;8.050;2024-01-06T11:40:07;97482.22;;;3.81;96.80
79671;BME280;69137;50.878;8.050;2024-01-06T11:42:33;97478.03;;;3.73;96.38
79671;BME280;69137;50.878;8.050;2024-01-06T11:45:06;97463.88;;;3.66;96.51
79671;BME280;69137;50.878;8.050;2024-01-06T11:47:32;97461.72;;;3.68;97.47
79671;BME280;69137;50.878;8.050;2024-01-06T11:49:59;97471.31;;;3.76;96.76
79671;BME280;69137;50.878;8.050;2024-01-06T11:52:25;97467.66;;;3.82;96.12
79671;BME280;69137;50.878;8.050;2024-01-06T11:54:52;97465.69;;;3.77;95.67
79671;BME280;69137;50.878;8.050;2024-01-06T11:57:18;97475.69;;;3.77;94.62
79671;BME280;69137;50.878;8.050;2024-01-06T11:59:43;97477.53;;;3.76;95.01
79671;BME280;69137;50.878;8.050;2024-01-06T12:02:11;97474.09;;;3.81;95.99
79671;BME280;69137;50.878;8.050;2024-01-06T12:04:37;97475.84;;;3.87;96.78
79671;BME280;69137;50.878;8.050;2024-01-06T12:07:06;97474.44;;;4.01;96.77
79671;BME280;69137;50.878;8.050;2024-01-06T12:09:32;97471.44;;;3.98;96.96
79671;BME280;69137;50.878;8.050;2024-01-06T12:12:01;97472.88;;;3.88;97.14
79671;BME280;69137;50.878;8.050;2024-01-06T12:14:27;97469.06;;;3.84;95.51
79671;BME280;69137;50.878;8.050;2024-01-06T12:16:52;97458.06;;;3.74;95.75
79671;BME280;69137;50.878;8.050;2024-01-06T12:19:18;97461.72;;;3.68;95.17
79671;BME280;69137;50.878;8.050;2024-01-06T12:21:44;97460.44;;;3.70;96.63
79671;BME280;69137;50.878;8.050;2024-01-06T12:24:17;97455.69;;;3.78;97.06
79671;BME280;69137;50.878;8.050;2024-01-06T12:26:45;97465.78;;;3.82;96.31
79671;BME280;69137;50.878;8.050;2024-01-06T12:29:14;97464.13;;;3.81;96.49
79671;BME280;69137;50.878;8.050;2024-01-06T12:31:40;97471.66;;;3.79;96.92
79671;BME280;69137;50.878;8.050;2024-01-06T12:34:07;97471.09;;;3.77;96.64
79671;BME280;69137;50.878;8.050;2024-01-06T12:36:36;97475.00;;;3.86;96.76
79671;BME280;69137;50.878;8.050;2024-01-06T12:39:03;97473.47;;;3.90;97.17
79671;BME280;69137;50.878;8.050;2024-01-06T12:41:29;97478.13;;;3.95;97.02
79671;BME280;69137;50.878;8.050;2024-01-06T12:43:54;97485.84;;;4.03;96.39
79671;BME280;69137;50.878;8.050;2024-01-06T12:46:19;97478.53;;;4.04;96.22
79671;BME280;69137;50.878;8.050;2024-01-06T12:48:45;97477.72;;;4.03;95.97
79671;BME280;69137;50.878;8.050;2024-01-06T12:51:10;97484.94;;;3.98;96.79
79671;BME280;69137;50.878;8.050;2024-01-06T12:53:36;97490.06;;;3.99;96.38
79671;BME280;69137;50.878;8.050;2024-01-06T12:56:01;97489.53;;;3.97;95.83
79671;BME280;69137;50.878;8.050;2024-01-06T12:58:26;97491.66;;;3.95;95.42
79671;BME280;69137;50.878;8.050;2024-01-06T13:00:52;97495.16;;;3.96;96.41
79671;BME280;69137;50.878;8.050;2024-01-06T13:03:17;97492.78;;;3.99;96.78
79671;BME280;69137;50.878;8.050;2024-01-06T13:05:44;97493.84;;;3.98;97.09